Time,TemperatureF,DewpointF,PressureIn,WindDirection,WindDirectionDegrees,WindSpeedMPH,WindSpeedGustMPH,Humidity,HourlyPrecipIn,Conditions,Clouds,dailyrainin,SoftwareType,DateUTC
2013-02-16 00:03:00,33.8,9.0,29.94,NE,45,1.2,1.2,35,0.00,CLR,,0.00,WeatherDisplay:10.37,2013-02-16 07:03:00,
2013-02-16 00:08:00,33.4,9.3,29.94,NNE,22,1.2,1.2,36,0.00,CLR,,0.00,WeatherDisplay:10.37,2013-02-16 07:08:00,
2013-02-16 00:13:00,33.3,9.1,29.94,NNW,338,2.3,2.3,36,0.00,CLR,,0.00,WeatherDisplay:10.37,2013-02-16 07:13:00,
2013-02-16 00:18:00,33.3,9.1,29.94,North,0,1.2,1.2,36,0.00,CLR,,0.00,WeatherDisplay:10.37,2013-02-16 07:18:00,
2013-02-16 00:23:00,33.3,9.8,29.94,NNW,338,3.3,3.3,37,0.00,CLR,,0.00,WeatherDisplay:10.37,2013-02-16 07:23:00,
2013-02-16 00:28:00,33.3,9.8,29.94,North,0,0.0,0.0,37,0.00,CLR,,0.00,WeatherDisplay:10.37,2013-02-16 07:28:00,
2013-02-16 00:33:00,33.1,9.6,29.94,NNE,22,2.3,2.3,37,0.00,CLR,,0.00,WeatherDisplay:10.37,2013-02-16 07:33:00,
2013-02-16 00:38:00,32.9,8.8,29.94,ENE,68,1.2,1.2,36,0.00,CLR,,0.00,WeatherDisplay:10.37,2013-02-16 07:38:00,
2013-02-16 00:43:00,32.7,9.3,29.95,NE,45,1.2,1.2,37,0.00,CLR,,0.00,WeatherDisplay:10.37,2013-02-16 07:43:00,
2013-02-16 00:48:00,32.5,9.1,29.95,NNE,22,0.2,0.2,37,0.00,CLR,,0.00,WeatherDisplay:10.37,2013-02-16 07:48:00,
2013-02-16 00:53:00,32.2,8.8,29.95,North,0,0.0,0.0,37,0.00,CLR,,0.00,WeatherDisplay:10.37,2013-02-16 07:53:00,
2013-02-16 00:58:00,32.0,8.6,29.95,NNE,22,1.2,0.0,37,0.00,CLR,,0.00,WeatherDisplay:10.37,2013-02-16 07:58:00,
2013-02-16 01:03:00,31.8,8.5,29.96,North,0,0.0,0.5,37,0.00,CLR,,0.00,WeatherDisplay:10.37,2013-02-16 08:03:00,
2013-02-16 01:08:00,31.6,8.3,29.96,NE,45,2.3,0.0,37,0.00,CLR,,0.00,WeatherDisplay:10.37,2013-02-16 08:08:00,
2013-02-16 01:13:00,31.5,8.1,29.96,North,0,0.0,0.0,37,0.00,CLR,,0.00,WeatherDisplay:10.37,2013-02-16 08:13:00,
2013-02-16 01:18:00,31.3,8.0,29.96,NE,45,0.0,0.0,37,0.00,CLR,,0.00,WeatherDisplay:10.37,2013-02-16 08:18:00,
2013-02-16 01:23:00,30.9,7.7,29.96,NE,45,0.0,0.0,37,0.00,CLR,,0.00,WeatherDisplay:10.37,2013-02-16 08:23:00,
2013-02-16 01:28:00,30.6,7.3,29.96,NNE,22,0.0,0.0,37,0.00,CLR,,0.00,WeatherDisplay:10.37,2013-02-16 08:28:00,
2013-02-16 01:33:00,30.4,7.8,29.97,NNW,338,1.2,1.2,38,0.00,CLR,,0.00,WeatherDisplay:10.37,2013-02-16 08:33:00,
2013-02-16 01:38:00,30.2,8.2,29.97,North,0,1.2,1.2,39,0.00,CLR,,0.00,WeatherDisplay:10.37,2013-02-16 08:38:00,
2013-02-16 01:43:00,30.2,8.2,29.97,East,90,1.2,1.2,39,0.00,CLR,,0.00,WeatherDisplay:10.37,2013-02-16 08:43:00,
2013-02-16 01:48:00,30.2,8.2,29.97,North,0,0.0,0.0,39,0.00,CLR,,0.00,WeatherDisplay:10.37,2013-02-16 08:48:00,
2013-02-16 01:53:00,30.0,8.0,29.97,North,0,0.0,0.0,39,0.00,CLR,,0.00,WeatherDisplay:10.37,2013-02-16 08:53:00,
2013-02-16 01:58:00,30.0,8.0,29.97,NNW,338,1.2,0.0,39,0.00,CLR,,0.00,WeatherDisplay:10.37,2013-02-16 08:58:00,
2013-02-16 02:03:00,30.0,8.0,29.97,North,0,1.2,1.2,39,0.00,CLR,,0.00,WeatherDisplay:10.37,2013-02-16 09:03:00,
2013-02-16 02:08:00,29.8,8.4,29.97,NNW,338,0.0,0.0,40,0.00,CLR,,0.00,WeatherDisplay:10.37,2013-02-16 09:08:00,
2013-02-16 02:13:00,29.7,8.3,29.97,NNE,22,0.2,0.2,40,0.00,CLR,,0.00,WeatherDisplay:10.37,2013-02-16 09:13:00,
2013-02-16 02:18:00,29.7,8.3,29.97,NE,45,0.5,0.5,40,0.00,CLR,,0.00,WeatherDisplay:10.37,2013-02-16 09:18:00,
2013-02-16 02:23:00,29.8,9.0,29.97,North,0,1.2,1.2,41,0.00,CLR,,0.00,WeatherDisplay:10.37,2013-02-16 09:23:00,
2013-02-16 02:28:00,29.8,9.0,29.97,North,0,1.2,0.0,41,0.00,CLR,,0.00,WeatherDisplay:10.37,2013-02-16 09:28:00,
2013-02-16 02:33:00,29.8,9.0,29.97,North,0,0.0,0.0,41,0.00,CLR,,0.00,WeatherDisplay:10.37,2013-02-16 09:33:00,
2013-02-16 02:38:00,29.8,9.0,29.97,NNE,22,1.2,1.2,41,0.00,CLR,,0.00,WeatherDisplay:10.37,2013-02-16 09:38:00,
2013-02-16 02:43:00,29.7,8.8,29.97,North,0,0.0,0.0,41,0.00,CLR,,0.00,WeatherDisplay:10.37,2013-02-16 09:43:00,
2013-02-16 02:48:00,29.7,8.8,29.97,North,0,1.2,1.2,41,0.00,CLR,,0.00,WeatherDisplay:10.37,2013-02-16 09:48:00,
2013-02-16 02:53:00,29.5,9.2,29.97,North,0,1.2,1.2,42,0.00,CLR,,0.00,WeatherDisplay:10.37,2013-02-16 09:53:00,
2013-02-16 02:58:00,29.8,9.5,29.97,NW,315,0.2,0.2,42,0.00,CLR,,0.00,WeatherDisplay:10.37,2013-02-16 09:58:00,
2013-02-16 03:03:00,30.0,9.7,29.97,NW,315,2.3,2.3,42,0.00,CLR,,0.00,WeatherDisplay:10.37,2013-02-16 10:03:00,
2013-02-16 03:08:00,30.2,9.8,29.97,North,0,2.3,2.3,42,0.00,CLR,,0.00,WeatherDisplay:10.37,2013-02-16 10:08:00,
2013-02-16 03:13:00,30.0,9.7,29.97,NNW,338,1.6,1.6,42,0.00,CLR,,0.00,WeatherDisplay:10.37,2013-02-16 10:13:00,
2013-02-16 03:18:00,30.0,9.7,29.97,ENE,68,0.0,0.5,42,0.00,CLR,,0.00,WeatherDisplay:10.37,2013-02-16 10:18:00,
2013-02-16 03:23:00,29.8,9.0,29.97,NW,315,0.0,0.0,41,0.00,CLR,,0.00,WeatherDisplay:10.37,2013-02-16 10:23:00,
2013-02-16 03:28:00,29.7,8.8,29.97,NNW,338,0.5,0.5,41,0.00,CLR,,0.00,WeatherDisplay:10.37,2013-02-16 10:28:00,
2013-02-16 03:33:00,29.5,8.6,29.97,North,0,1.2,1.2,41,0.00,CLR,,0.00,WeatherDisplay:10.37,2013-02-16 10:33:00,
2013-02-16 03:38:00,29.3,9.0,29.97,NNW,338,1.2,1.2,42,0.00,CLR,,0.00,WeatherDisplay:10.37,2013-02-16 10:38:00,
2013-02-16 03:43:00,29.3,9.0,29.97,NNE,22,2.3,2.3,42,0.00,CLR,,0.00,WeatherDisplay:10.37,2013-02-16 10:43:00,
2013-02-16 03:48:00,29.5,9.7,29.97,North,0,2.3,2.3,43,0.00,CLR,,0.00,WeatherDisplay:10.37,2013-02-16 10:48:00,
2013-02-16 03:53:00,29.8,10.0,29.97,NNE,22,1.6,1.6,43,0.00,CLR,,0.00,WeatherDisplay:10.37,2013-02-16 10:53:00,
2013-02-16 03:58:00,29.8,10.0,29.97,NNW,338,1.2,1.2,43,0.00,CLR,,0.00,WeatherDisplay:10.37,2013-02-16 10:58:00,
2013-02-16 04:03:00,29.8,10.0,29.97,NE,45,1.2,1.2,43,0.00,CLR,,0.00,WeatherDisplay:10.37,2013-02-16 11:03:00,
2013-02-16 04:08:00,29.8,10.0,29.97,NNE,22,2.3,2.3,43,0.00,CLR,,0.00,WeatherDisplay:10.37,2013-02-16 11:08:00,
2013-02-16 04:13:00,29.8,10.0,29.97,NNE,22,1.2,0.0,43,0.00,CLR,,0.00,WeatherDisplay:10.37,2013-02-16 11:13:00,
2013-02-16 04:18:00,29.8,10.0,29.97,NNE,22,2.3,2.3,43,0.00,CLR,,0.00,WeatherDisplay:10.37,2013-02-16 11:18:00,
2013-02-16 04:23:00,29.8,10.0,29.97,NNE,22,2.3,2.3,43,0.00,CLR,,0.00,WeatherDisplay:10.37,2013-02-16 11:23:00,
2013-02-16 04:28:00,30.0,10.2,29.97,NNE,22,2.0,2.0,43,0.00,CLR,,0.00,WeatherDisplay:10.37,2013-02-16 11:28:00,
2013-02-16 04:33:00,30.0,10.2,29.97,North,0,2.3,2.3,43,0.00,CLR,,0.00,WeatherDisplay:10.37,2013-02-16 11:33:00,
2013-02-16 04:38:00,30.2,10.4,29.97,NE,45,2.3,2.3,43,0.00,CLR,,0.00,WeatherDisplay:10.37,2013-02-16 11:38:00,
2013-02-16 04:43:00,30.2,10.4,29.97,NNW,338,1.2,0.0,43,0.00,CLR,,0.00,WeatherDisplay:10.37,2013-02-16 11:43:00,
2013-02-16 04:48:00,30.2,10.4,29.97,NE,45,0.0,0.0,43,0.00,CLR,,0.00,WeatherDisplay:10.37,2013-02-16 11:48:00,
2013-02-16 04:53:00,30.2,10.4,29.97,NNE,22,1.2,1.2,43,0.00,CLR,,0.00,WeatherDisplay:10.37,2013-02-16 11:53:00,
2013-02-16 04:58:00,30.0,10.2,29.97,North,0,1.2,1.2,43,0.00,CLR,,0.00,WeatherDisplay:10.37,2013-02-16 11:58:00,
2013-02-16 05:03:00,30.0,10.2,29.97,North,0,2.3,2.3,43,0.00,CLR,,0.00,WeatherDisplay:10.37,2013-02-16 12:03:00,
2013-02-16 05:08:00,29.8,10.0,29.97,NNE,22,2.3,2.3,43,0.00,CLR,,0.00,WeatherDisplay:10.37,2013-02-16 12:08:00,
2013-02-16 05:13:00,29.8,10.5,29.97,North,0,1.2,1.2,44,0.00,CLR,,0.00,WeatherDisplay:10.37,2013-02-16 12:13:00,
2013-02-16 05:18:00,30.2,10.9,29.97,NNE,22,3.5,3.5,44,0.00,CLR,,0.00,WeatherDisplay:10.37,2013-02-16 12:18:00,
2013-02-16 05:23:00,30.6,11.2,29.97,North,0,1.2,1.2,44,0.00,CLR,,0.00,WeatherDisplay:10.37,2013-02-16 12:23:00,
2013-02-16 05:28:00,30.6,11.2,29.97,NNW,338,3.5,3.5,44,0.00,CLR,,0.00,WeatherDisplay:10.37,2013-02-16 12:28:00,
2013-02-16 05:33:00,30.7,10.8,29.97,ENE,68,1.2,1.2,43,0.00,CLR,,0.00,WeatherDisplay:10.37,2013-02-16 12:33:00,
2013-02-16 05:38:00,30.7,10.8,29.97,NNW,338,1.2,0.0,43,0.00,CLR,,0.00,WeatherDisplay:10.37,2013-02-16 12:38:00,
2013-02-16 05:43:00,30.7,10.8,29.97,NE,45,1.6,1.6,43,0.00,CLR,,0.00,WeatherDisplay:10.37,2013-02-16 12:43:00,
2013-02-16 05:48:00,30.7,10.8,29.97,NE,45,2.3,2.3,43,0.00,CLR,,0.00,WeatherDisplay:10.37,2013-02-16 12:48:00,
2013-02-16 05:53:00,30.9,11.5,29.97,NNW,338,2.3,2.3,44,0.00,CLR,,0.00,WeatherDisplay:10.37,2013-02-16 12:53:00,
2013-02-16 05:58:00,31.1,11.7,29.97,East,90,2.3,2.3,44,0.00,CLR,,0.00,WeatherDisplay:10.37,2013-02-16 12:58:00,
2013-02-16 06:03:00,31.1,11.2,29.97,North,0,2.3,2.3,43,0.00,CLR,,0.00,WeatherDisplay:10.37,2013-02-16 13:03:00,
2013-02-16 06:08:00,30.9,11.0,29.97,NW,315,1.2,1.2,43,0.00,CLR,,0.00,WeatherDisplay:10.37,2013-02-16 13:08:00,
2013-02-16 06:13:00,30.9,11.0,29.97,NNE,22,1.2,1.2,43,0.00,CLR,,0.00,WeatherDisplay:10.37,2013-02-16 13:13:00,
2013-02-16 06:18:00,30.9,11.5,29.97,NNW,338,1.2,1.2,44,0.00,CLR,,0.00,WeatherDisplay:10.37,2013-02-16 13:18:00,
2013-02-16 06:23:00,31.1,11.2,29.97,NNW,338,3.5,3.5,43,0.00,CLR,,0.00,WeatherDisplay:10.37,2013-02-16 13:23:00,
2013-02-16 06:28:00,31.3,11.3,29.97,North,0,1.2,1.2,43,0.00,CLR,,0.00,WeatherDisplay:10.37,2013-02-16 13:28:00,
2013-02-16 06:33:00,31.5,11.5,29.97,ENE,68,2.3,2.3,43,0.00,CLR,,0.00,WeatherDisplay:10.37,2013-02-16 13:33:00,
2013-02-16 06:38:00,31.6,11.7,29.97,NNE,22,4.6,4.6,43,0.00,CLR,,0.00,WeatherDisplay:10.37,2013-02-16 13:38:00,
2013-02-16 06:43:00,31.8,11.8,29.97,NNW,338,2.3,2.3,43,0.00,CLR,,0.00,WeatherDisplay:10.37,2013-02-16 13:43:00,
2013-02-16 06:48:00,31.8,11.8,29.97,NE,45,2.3,2.3,43,0.00,CLR,,0.00,WeatherDisplay:10.37,2013-02-16 13:48:00,
2013-02-16 06:53:00,32.0,11.5,29.97,North,0,4.6,4.6,42,0.00,CLR,,0.00,WeatherDisplay:10.37,2013-02-16 13:53:00,
2013-02-16 06:58:00,32.2,11.6,29.97,North,0,5.8,5.8,42,0.00,CLR,,0.00,WeatherDisplay:10.37,2013-02-16 13:58:00,
2013-02-16 07:03:00,32.5,12.0,29.98,NNW,338,2.3,2.3,42,0.00,CLR,,0.00,WeatherDisplay:10.37,2013-02-16 14:03:00,
2013-02-16 07:08:00,32.5,11.4,29.98,NE,45,4.6,4.6,41,0.00,CLR,,0.00,WeatherDisplay:10.37,2013-02-16 14:08:00,
2013-02-16 07:13:00,32.9,11.7,29.98,SSE,158,0.0,0.0,41,0.00,CLR,,0.00,WeatherDisplay:10.37,2013-02-16 14:13:00,
2013-02-16 07:18:00,33.1,12.4,29.98,NE,45,3.1,3.1,42,0.00,CLR,,0.00,WeatherDisplay:10.37,2013-02-16 14:18:00,
2013-02-16 07:23:00,33.3,12.1,29.98,NNW,338,2.3,2.3,41,0.00,CLR,,0.00,WeatherDisplay:10.37,2013-02-16 14:23:00,
2013-02-16 07:28:00,33.4,12.2,29.99,North,0,3.5,3.5,41,0.00,CLR,,0.00,WeatherDisplay:10.37,2013-02-16 14:28:00,
2013-02-16 07:33:00,33.4,12.2,29.99,NNW,338,4.6,4.6,41,0.00,CLR,,0.00,WeatherDisplay:10.37,2013-02-16 14:33:00,
2013-02-16 07:38:00,33.6,12.4,29.99,NW,315,3.5,3.5,41,0.00,CLR,,0.00,WeatherDisplay:10.37,2013-02-16 14:38:00,
2013-02-16 07:43:00,33.8,12.0,29.99,North,0,2.3,2.3,40,0.00,CLR,,0.00,WeatherDisplay:10.37,2013-02-16 14:43:00,
2013-02-16 07:48:00,34.2,12.3,29.99,NNE,22,2.3,2.3,40,0.00,CLR,,0.00,WeatherDisplay:10.37,2013-02-16 14:48:00,
2013-02-16 07:53:00,34.3,12.5,29.99,NE,45,2.3,2.6,40,0.00,CLR,,0.00,WeatherDisplay:10.37,2013-02-16 14:53:00,
2013-02-16 07:58:00,34.9,12.4,29.99,North,0,1.2,0.0,39,0.00,CLR,,0.00,WeatherDisplay:10.37,2013-02-16 14:58:00,
2013-02-16 08:03:00,35.2,12.7,29.99,NNW,338,4.6,4.6,39,0.00,CLR,,0.00,WeatherDisplay:10.37,2013-02-16 15:03:00,
2013-02-16 08:08:00,35.6,13.0,29.99,NNE,22,4.6,4.6,39,0.00,CLR,,0.00,WeatherDisplay:10.37,2013-02-16 15:08:00,
2013-02-16 08:13:00,36.1,12.9,29.99,ENE,68,2.3,2.3,38,0.00,CLR,,0.00,WeatherDisplay:10.37,2013-02-16 15:13:00,
2013-02-16 08:18:00,36.7,13.4,30.00,NNW,338,4.6,4.6,38,0.00,CLR,,0.00,WeatherDisplay:10.37,2013-02-16 15:18:00,
2013-02-16 08:23:00,37.4,13.5,30.00,NW,315,3.5,3.5,37,0.00,CLR,,0.00,WeatherDisplay:10.37,2013-02-16 15:23:00,
2013-02-16 08:28:00,37.9,13.3,30.00,NNW,338,3.5,3.5,36,0.00,CLR,,0.00,WeatherDisplay:10.37,2013-02-16 15:28:00,
2013-02-16 08:33:00,38.3,13.6,29.99,NE,45,4.6,4.6,36,0.00,CLR,,0.00,WeatherDisplay:10.37,2013-02-16 15:33:00,
2013-02-16 08:38:00,38.8,13.5,30.00,WNW,292,4.6,4.6,35,0.00,CLR,,0.00,WeatherDisplay:10.37,2013-02-16 15:38:00,
2013-02-16 08:43:00,39.2,13.1,29.99,NNW,338,2.4,2.4,34,0.00,CLR,,0.00,WeatherDisplay:10.37,2013-02-16 15:43:00,
2013-02-16 08:48:00,39.6,12.8,29.99,NW,315,3.5,3.5,33,0.00,CLR,,0.00,WeatherDisplay:10.37,2013-02-16 15:48:00,
2013-02-16 08:53:00,39.9,13.1,29.99,NW,315,3.6,3.6,33,0.00,CLR,,0.00,WeatherDisplay:10.37,2013-02-16 15:53:00,
2013-02-16 08:58:00,40.1,12.6,29.99,North,0,4.6,4.6,32,0.00,CLR,,0.00,WeatherDisplay:10.37,2013-02-16 15:58:00,
2013-02-16 09:03:00,40.3,12.7,29.99,NNW,338,4.3,4.3,32,0.00,CLR,,0.00,WeatherDisplay:10.37,2013-02-16 16:03:00,
2013-02-16 09:08:00,40.5,12.2,29.98,North,0,4.6,4.6,31,0.00,CLR,,0.00,WeatherDisplay:10.37,2013-02-16 16:08:00,
2013-02-16 09:13:00,40.6,12.3,29.97,NNW,338,3.5,3.5,31,0.00,CLR,,0.00,WeatherDisplay:10.37,2013-02-16 16:13:00,
2013-02-16 09:18:00,41.0,12.6,29.98,North,0,4.6,4.7,31,0.00,CLR,,0.00,WeatherDisplay:10.37,2013-02-16 16:18:00,
2013-02-16 09:23:00,41.2,12.8,29.98,North,0,2.4,2.4,31,0.00,CLR,,0.00,WeatherDisplay:10.37,2013-02-16 16:23:00,
2013-02-16 09:28:00,41.4,12.9,29.97,NNW,338,4.6,4.6,31,0.00,CLR,,0.00,WeatherDisplay:10.37,2013-02-16 16:28:00,
2013-02-16 09:33:00,41.7,13.3,29.97,NNW,338,4.6,4.6,31,0.00,CLR,,0.00,WeatherDisplay:10.37,2013-02-16 16:33:00,
2013-02-16 09:38:00,41.9,12.7,29.97,North,0,4.9,4.9,30,0.00,CLR,,0.00,WeatherDisplay:10.37,2013-02-16 16:38:00,
2013-02-16 09:43:00,42.1,12.8,29.97,WNW,292,4.6,6.2,30,0.00,CLR,,0.00,WeatherDisplay:10.37,2013-02-16 16:43:00,
2013-02-16 09:48:00,42.1,12.8,29.97,NNW,338,2.3,2.3,30,0.00,CLR,,0.00,WeatherDisplay:10.37,2013-02-16 16:48:00,
2013-02-16 09:53:00,42.6,13.3,29.97,East,90,5.8,5.8,30,0.00,CLR,,0.00,WeatherDisplay:10.37,2013-02-16 16:53:00,
2013-02-16 09:58:00,42.8,13.5,29.97,NW,315,5.2,5.2,30,0.00,CLR,,0.00,WeatherDisplay:10.37,2013-02-16 16:58:00,
2013-02-16 10:03:00,43.2,13.0,29.97,WNW,292,3.5,3.5,29,0.00,CLR,,0.00,WeatherDisplay:10.37,2013-02-16 17:03:00,
2013-02-16 10:08:00,43.2,13.8,29.97,NNW,338,5.8,5.8,30,0.00,CLR,,0.00,WeatherDisplay:10.37,2013-02-16 17:08:00,
2013-02-16 10:13:00,43.3,13.2,29.97,NNW,338,5.8,5.8,29,0.00,CLR,,0.00,WeatherDisplay:10.37,2013-02-16 17:13:00,
2013-02-16 10:18:00,43.7,13.5,29.97,NW,315,6.9,6.9,29,0.00,CLR,,0.00,WeatherDisplay:10.37,2013-02-16 17:18:00,
2013-02-16 10:23:00,43.9,13.6,29.96,NNW,338,6.0,6.0,29,0.00,CLR,,0.00,WeatherDisplay:10.37,2013-02-16 17:23:00,
2013-02-16 10:28:00,44.2,13.9,29.96,NW,315,5.8,5.8,29,0.00,CLR,,0.00,WeatherDisplay:10.37,2013-02-16 17:28:00,
2013-02-16 10:33:00,44.6,13.5,29.96,NW,315,5.8,5.8,28,0.00,CLR,,0.00,WeatherDisplay:10.37,2013-02-16 17:33:00,
2013-02-16 10:38:00,44.6,14.3,29.96,NW,315,4.6,4.6,29,0.00,CLR,,0.00,WeatherDisplay:10.37,2013-02-16 17:38:00,
2013-02-16 10:43:00,45.1,13.9,29.96,WNW,292,4.6,4.6,28,0.00,CLR,,0.00,WeatherDisplay:10.37,2013-02-16 17:43:00,
2013-02-16 10:48:00,45.7,14.4,29.96,NW,315,4.6,4.6,28,0.00,CLR,,0.00,WeatherDisplay:10.37,2013-02-16 17:48:00,
2013-02-16 10:53:00,45.9,14.5,29.96,East,90,3.5,3.5,28,0.00,CLR,,0.00,WeatherDisplay:10.37,2013-02-16 17:53:00,
2013-02-16 10:58:00,46.0,13.9,29.96,WNW,292,3.5,3.5,27,0.00,CLR,,0.00,WeatherDisplay:10.37,2013-02-16 17:58:00,
2013-02-16 11:03:00,46.4,14.2,29.97,NW,315,3.8,3.8,27,0.00,CLR,,0.00,WeatherDisplay:10.37,2013-02-16 18:03:00,
2013-02-16 11:08:00,46.4,14.2,29.98,NW,315,4.6,4.6,27,0.00,CLR,,0.00,WeatherDisplay:10.37,2013-02-16 18:08:00,
2013-02-16 11:13:00,46.8,14.5,29.97,NNW,338,4.6,4.6,27,0.00,CLR,,0.00,WeatherDisplay:10.37,2013-02-16 18:13:00,
2013-02-16 11:18:00,46.8,13.6,29.97,NW,315,4.6,4.6,26,0.00,CLR,,0.00,WeatherDisplay:10.37,2013-02-16 18:18:00,
2013-02-16 11:23:00,46.9,13.8,29.96,NW,315,4.6,4.6,26,0.00,CLR,,0.00,WeatherDisplay:10.37,2013-02-16 18:23:00,
2013-02-16 11:28:00,47.3,14.1,29.96,WNW,292,1.2,2.9,26,0.00,CLR,,0.00,WeatherDisplay:10.37,2013-02-16 18:28:00,
2013-02-16 11:33:00,47.8,13.7,29.96,NW,315,3.5,3.5,25,0.00,CLR,,0.00,WeatherDisplay:10.37,2013-02-16 18:33:00,
2013-02-16 11:38:00,48.2,14.0,29.95,SE,135,2.3,2.3,25,0.00,CLR,,0.00,WeatherDisplay:10.37,2013-02-16 18:38:00,
2013-02-16 11:43:00,48.6,13.3,29.95,NNW,338,4.5,4.5,24,0.00,CLR,,0.00,WeatherDisplay:10.37,2013-02-16 18:43:00,
2013-02-16 11:48:00,48.6,13.3,29.94,NNW,338,5.8,5.8,24,0.00,CLR,,0.00,WeatherDisplay:10.37,2013-02-16 18:48:00,
2013-02-16 11:53:00,48.7,13.5,29.94,NW,315,3.5,3.5,24,0.00,CLR,,0.00,WeatherDisplay:10.37,2013-02-16 18:53:00,
2013-02-16 11:58:00,49.3,14.0,29.94,NNW,338,3.5,3.5,24,0.00,CLR,,0.00,WeatherDisplay:10.37,2013-02-16 18:58:00,
2013-02-16 12:03:00,49.6,14.3,29.93,NW,315,3.5,3.5,24,0.00,CLR,,0.00,WeatherDisplay:10.37,2013-02-16 19:03:00,
2013-02-16 12:08:00,49.8,14.4,29.93,NW,315,2.3,2.3,24,0.00,CLR,,0.00,WeatherDisplay:10.37,2013-02-16 19:08:00,
2013-02-16 12:13:00,50.4,13.9,29.93,West,270,3.5,3.5,23,0.00,CLR,,0.00,WeatherDisplay:10.37,2013-02-16 19:13:00,
2013-02-16 12:18:00,50.5,14.1,29.92,WSW,248,2.3,2.3,23,0.00,CLR,,0.00,WeatherDisplay:10.37,2013-02-16 19:18:00,
2013-02-16 12:23:00,51.1,13.5,29.92,WSW,248,1.2,4.3,22,0.00,CLR,,0.00,WeatherDisplay:10.37,2013-02-16 19:23:00,
2013-02-16 12:28:00,51.4,13.8,29.92,WNW,292,3.5,3.5,22,0.00,CLR,,0.00,WeatherDisplay:10.37,2013-02-16 19:28:00,
2013-02-16 12:33:00,51.3,13.6,29.92,WSW,248,2.3,2.3,22,0.00,CLR,,0.00,WeatherDisplay:10.37,2013-02-16 19:33:00,
2013-02-16 12:38:00,51.4,13.8,29.91,North,0,2.3,2.3,22,0.00,CLR,,0.00,WeatherDisplay:10.37,2013-02-16 19:38:00,
2013-02-16 12:43:00,51.6,13.9,29.91,SW,225,2.9,2.9,22,0.00,CLR,,0.00,WeatherDisplay:10.37,2013-02-16 19:43:00,
2013-02-16 12:48:00,51.8,13.0,29.91,WNW,292,4.6,4.6,21,0.00,CLR,,0.00,WeatherDisplay:10.37,2013-02-16 19:48:00,
2013-02-16 12:53:00,51.8,14.1,29.90,NW,315,4.6,4.6,22,0.00,CLR,,0.00,WeatherDisplay:10.37,2013-02-16 19:53:00,
2013-02-16 12:58:00,52.2,13.3,29.90,WNW,292,5.8,5.8,21,0.00,CLR,,0.00,WeatherDisplay:10.37,2013-02-16 19:58:00,
2013-02-16 13:03:00,52.5,13.6,29.89,NW,315,4.6,4.6,21,0.00,CLR,,0.00,WeatherDisplay:10.37,2013-02-16 20:03:00,
2013-02-16 13:08:00,52.5,13.6,29.89,North,0,3.5,3.5,21,0.00,CLR,,0.00,WeatherDisplay:10.37,2013-02-16 20:08:00,
2013-02-16 13:13:00,52.2,13.3,29.89,WNW,292,4.6,4.6,21,0.00,CLR,,0.00,WeatherDisplay:10.37,2013-02-16 20:13:00,
2013-02-16 13:18:00,52.2,13.3,29.89,WNW,292,3.5,3.5,21,0.00,CLR,,0.00,WeatherDisplay:10.37,2013-02-16 20:18:00,
2013-02-16 13:23:00,52.0,13.2,29.89,SW,225,8.1,8.1,21,0.00,CLR,,0.00,WeatherDisplay:10.37,2013-02-16 20:23:00,
2013-02-16 13:28:00,52.2,13.3,29.88,NNW,338,1.4,1.4,21,0.00,CLR,,0.00,WeatherDisplay:10.37,2013-02-16 20:28:00,
2013-02-16 13:33:00,52.5,13.6,29.88,SE,135,2.9,2.9,21,0.00,CLR,,0.00,WeatherDisplay:10.37,2013-02-16 20:33:00,
2013-02-16 13:38:00,52.9,13.9,29.88,North,0,1.2,0.0,21,0.00,CLR,,0.00,WeatherDisplay:10.37,2013-02-16 20:38:00,
2013-02-16 13:43:00,53.4,14.4,29.88,NW,315,2.3,2.3,21,0.00,CLR,,0.00,WeatherDisplay:10.37,2013-02-16 20:43:00,
2013-02-16 13:48:00,53.6,14.5,29.88,SW,225,2.6,2.6,21,0.00,CLR,,0.00,WeatherDisplay:10.37,2013-02-16 20:48:00,
2013-02-16 13:53:00,54.1,15.0,29.87,SSW,202,5.8,5.8,21,0.00,CLR,,0.00,WeatherDisplay:10.37,2013-02-16 20:53:00,
2013-02-16 13:58:00,54.7,14.3,29.87,SSW,202,2.3,2.3,20,0.00,CLR,,0.00,WeatherDisplay:10.37,2013-02-16 20:58:00,
2013-02-16 14:03:00,55.0,14.6,29.87,SW,225,2.3,2.3,20,0.00,CLR,,0.00,WeatherDisplay:10.37,2013-02-16 21:03:00,
2013-02-16 14:08:00,54.9,14.5,29.87,West,270,2.3,2.3,20,0.00,CLR,,0.00,WeatherDisplay:10.37,2013-02-16 21:08:00,
2013-02-16 14:13:00,54.1,12.7,29.86,South,180,2.3,2.3,19,0.00,CLR,,0.00,WeatherDisplay:10.37,2013-02-16 21:13:00,
2013-02-16 14:18:00,54.3,14.0,29.86,SSW,202,2.3,2.3,20,0.00,CLR,,0.00,WeatherDisplay:10.37,2013-02-16 21:18:00,
2013-02-16 14:23:00,54.9,14.5,29.86,SSW,202,2.3,2.3,20,0.00,CLR,,0.00,WeatherDisplay:10.37,2013-02-16 21:23:00,
2013-02-16 14:28:00,55.4,14.9,29.86,ESE,112,4.6,4.6,20,0.00,CLR,,0.00,WeatherDisplay:10.37,2013-02-16 21:28:00,
2013-02-16 14:33:00,55.9,15.4,29.85,ENE,68,3.5,3.5,20,0.00,CLR,,0.00,WeatherDisplay:10.37,2013-02-16 21:33:00,
2013-02-16 14:38:00,56.5,14.7,29.85,SE,135,4.6,4.6,19,0.00,CLR,,0.00,WeatherDisplay:10.37,2013-02-16 21:38:00,
2013-02-16 14:43:00,57.0,15.1,29.85,SSE,158,3.5,3.5,19,0.00,CLR,,0.00,WeatherDisplay:10.37,2013-02-16 21:43:00,
2013-02-16 14:48:00,57.6,14.3,29.85,SSE,158,2.3,2.3,18,0.00,CLR,,0.00,WeatherDisplay:10.37,2013-02-16 21:48:00,
2013-02-16 14:53:00,57.9,14.6,29.84,SE,135,2.3,2.3,18,0.00,CLR,,0.00,WeatherDisplay:10.37,2013-02-16 21:53:00,
2013-02-16 14:58:00,58.1,14.8,29.84,SE,135,1.4,1.4,18,0.00,CLR,,0.00,WeatherDisplay:10.37,2013-02-16 21:58:00,
2013-02-16 15:03:00,58.5,15.0,29.84,ENE,68,3.8,3.8,18,0.00,CLR,,0.00,WeatherDisplay:10.37,2013-02-16 22:03:00,
2013-02-16 15:08:00,58.6,13.9,29.84,SSE,158,2.3,2.3,17,0.00,CLR,,0.00,WeatherDisplay:10.37,2013-02-16 22:08:00,
2013-02-16 15:13:00,59.0,16.7,29.84,ESE,112,2.3,2.3,19,0.00,CLR,,0.00,WeatherDisplay:10.37,2013-02-16 22:13:00,
2013-02-16 15:18:00,59.5,15.9,29.83,ESE,112,4.5,4.5,18,0.00,CLR,,0.00,WeatherDisplay:10.37,2013-02-16 22:18:00,
2013-02-16 15:23:00,59.5,15.9,29.83,SE,135,2.3,2.3,18,0.00,CLR,,0.00,WeatherDisplay:10.37,2013-02-16 22:23:00,
2013-02-16 15:28:00,59.7,16.1,29.83,SSE,158,2.3,2.3,18,0.00,CLR,,0.00,WeatherDisplay:10.37,2013-02-16 22:28:00,
2013-02-16 15:33:00,60.1,15.1,29.83,NNW,338,1.2,1.8,17,0.00,CLR,,0.00,WeatherDisplay:10.37,2013-02-16 22:33:00,
2013-02-16 15:38:00,58.6,12.5,29.82,WSW,248,2.3,2.3,16,0.00,CLR,,0.00,WeatherDisplay:10.37,2013-02-16 22:38:00,
2013-02-16 15:43:00,57.9,13.3,29.82,ENE,68,2.9,2.9,17,0.00,CLR,,0.00,WeatherDisplay:10.37,2013-02-16 22:43:00,
2013-02-16 15:48:00,58.1,13.4,29.82,East,90,3.1,3.1,17,0.00,CLR,,0.00,WeatherDisplay:10.37,2013-02-16 22:48:00,
2013-02-16 15:53:00,58.6,13.9,29.81,NW,315,2.2,2.2,17,0.00,CLR,,0.00,WeatherDisplay:10.37,2013-02-16 22:53:00,
2013-02-16 15:58:00,59.0,14.2,29.82,NW,315,1.2,2.4,17,0.00,CLR,,0.00,WeatherDisplay:10.37,2013-02-16 22:58:00,
2013-02-16 16:03:00,59.0,12.8,29.81,NW,315,1.2,1.2,16,0.00,CLR,,0.00,WeatherDisplay:10.37,2013-02-16 23:03:00,
2013-02-16 16:08:00,59.0,12.8,29.81,NW,315,2.3,2.3,16,0.00,CLR,,0.00,WeatherDisplay:10.37,2013-02-16 23:08:00,
2013-02-16 16:13:00,59.0,12.8,29.81,SSW,202,2.3,2.3,16,0.00,CLR,,0.00,WeatherDisplay:10.37,2013-02-16 23:13:00,
2013-02-16 16:18:00,58.6,12.5,29.81,NW,315,2.3,2.3,16,0.00,CLR,,0.00,WeatherDisplay:10.37,2013-02-16 23:18:00,
2013-02-16 16:23:00,58.5,12.4,29.81,NW,315,2.3,2.3,16,0.00,CLR,,0.00,WeatherDisplay:10.37,2013-02-16 23:23:00,
2013-02-16 16:28:00,58.3,10.8,29.81,NW,315,5.8,5.8,15,0.00,CLR,,0.00,WeatherDisplay:10.37,2013-02-16 23:28:00,
2013-02-16 16:33:00,57.9,11.9,29.81,WNW,292,2.3,2.3,16,0.00,CLR,,0.00,WeatherDisplay:10.37,2013-02-16 23:33:00,
2013-02-16 16:38:00,57.9,11.9,29.81,WNW,292,2.3,2.3,16,0.00,CLR,,0.00,WeatherDisplay:10.37,2013-02-16 23:38:00,
2013-02-16 16:43:00,57.7,10.3,29.80,SW,225,2.3,2.3,15,0.00,CLR,,0.00,WeatherDisplay:10.37,2013-02-16 23:43:00,
2013-02-16 16:48:00,57.6,11.6,29.80,West,270,3.5,3.5,16,0.00,CLR,,0.00,WeatherDisplay:10.37,2013-02-16 23:48:00,
2013-02-16 16:53:00,57.6,11.6,29.80,NW,315,2.3,2.3,16,0.00,CLR,,0.00,WeatherDisplay:10.37,2013-02-16 23:53:00,
2013-02-16 16:58:00,57.2,11.3,29.80,North,0,2.3,2.4,16,0.00,CLR,,0.00,WeatherDisplay:10.37,2013-02-16 23:58:00,
2013-02-16 17:03:00,57.2,11.3,29.80,WNW,292,1.2,1.2,16,0.00,CLR,,0.00,WeatherDisplay:10.37,2013-02-17 00:03:00,
2013-02-16 17:08:00,56.8,9.6,29.80,NW,315,2.9,2.9,15,0.00,CLR,,0.00,WeatherDisplay:10.37,2013-02-17 00:08:00,
2013-02-16 17:13:00,56.5,9.3,29.80,WNW,292,3.5,3.5,15,0.00,CLR,,0.00,WeatherDisplay:10.37,2013-02-17 00:13:00,
2013-02-16 17:18:00,56.1,9.0,29.79,North,0,2.3,2.3,15,0.00,CLR,,0.00,WeatherDisplay:10.37,2013-02-17 00:18:00,
2013-02-16 17:23:00,55.9,8.9,29.79,NNW,338,2.2,2.2,15,0.00,CLR,,0.00,WeatherDisplay:10.37,2013-02-17 00:23:00,
2013-02-16 17:28:00,55.6,5.4,29.80,NW,315,4.6,4.6,13,0.00,CLR,,0.00,WeatherDisplay:10.37,2013-02-17 00:28:00,
2013-02-16 17:33:00,55.2,3.4,29.80,NW,315,5.8,5.8,12,0.00,CLR,,0.00,WeatherDisplay:10.37,2013-02-17 00:33:00,
2013-02-16 17:38:00,54.9,3.1,29.80,NW,315,5.8,5.8,12,0.00,CLR,,0.00,WeatherDisplay:10.37,2013-02-17 00:38:00,
2013-02-16 17:43:00,54.5,2.8,29.79,NNW,338,4.6,4.6,12,0.00,CLR,,0.00,WeatherDisplay:10.37,2013-02-17 00:43:00,
2013-02-16 17:48:00,54.1,2.5,29.79,NW,315,4.6,4.6,12,0.00,CLR,,0.00,WeatherDisplay:10.37,2013-02-17 00:48:00,
2013-02-16 17:53:00,53.6,2.1,29.80,NW,315,4.6,4.6,12,0.00,CLR,,0.00,WeatherDisplay:10.37,2013-02-17 00:53:00,
2013-02-16 17:58:00,53.4,2.0,29.80,West,270,4.6,4.6,12,0.00,CLR,,0.00,WeatherDisplay:10.37,2013-02-17 00:58:00,
2013-02-16 18:03:00,52.9,1.5,29.80,North,0,4.6,4.6,12,0.00,CLR,,0.00,WeatherDisplay:10.37,2013-02-17 01:03:00,
2013-02-16 18:08:00,52.7,4.7,29.80,North,0,2.3,2.3,14,0.00,CLR,,0.00,WeatherDisplay:10.37,2013-02-17 01:08:00,
2013-02-16 18:13:00,52.2,4.3,29.80,NW,315,1.2,1.2,14,0.00,CLR,,0.00,WeatherDisplay:10.37,2013-02-17 01:13:00,
2013-02-16 18:18:00,51.8,4.0,29.80,NW,315,2.0,2.0,14,0.00,CLR,,0.00,WeatherDisplay:10.37,2013-02-17 01:18:00,
2013-02-16 18:23:00,51.3,5.1,29.80,NNW,338,2.3,2.3,15,0.00,CLR,,0.00,WeatherDisplay:10.37,2013-02-17 01:23:00,
2013-02-16 18:28:00,50.7,4.7,29.80,ENE,68,0.0,0.2,15,0.00,CLR,,0.00,WeatherDisplay:10.37,2013-02-17 01:28:00,
2013-02-16 18:33:00,50.2,4.2,29.80,North,0,1.2,1.2,15,0.00,CLR,,0.00,WeatherDisplay:10.37,2013-02-17 01:33:00,
2013-02-16 18:38:00,49.6,3.8,29.81,NW,315,1.2,1.2,15,0.00,CLR,,0.00,WeatherDisplay:10.37,2013-02-17 01:38:00,
2013-02-16 18:43:00,49.1,4.8,29.80,NNW,338,0.5,0.5,16,0.00,CLR,,0.00,WeatherDisplay:10.37,2013-02-17 01:43:00,
2013-02-16 18:48:00,48.6,4.3,29.81,North,0,0.0,0.7,16,0.00,CLR,,0.00,WeatherDisplay:10.37,2013-02-17 01:48:00,
2013-02-16 18:53:00,48.0,5.2,29.81,North,0,1.2,0.0,17,0.00,CLR,,0.00,WeatherDisplay:10.37,2013-02-17 01:53:00,
2013-02-16 18:58:00,47.5,4.8,29.81,North,0,1.2,1.2,17,0.00,CLR,,0.00,WeatherDisplay:10.37,2013-02-17 01:58:00,
2013-02-16 19:03:00,46.9,4.3,29.81,North,0,1.2,1.2,17,0.00,CLR,,0.00,WeatherDisplay:10.37,2013-02-17 02:03:00,
2013-02-16 19:08:00,46.6,4.0,29.81,NE,45,0.2,0.2,17,0.00,CLR,,0.00,WeatherDisplay:10.37,2013-02-17 02:08:00,
2013-02-16 19:13:00,46.0,4.8,29.81,NNE,22,0.5,0.5,18,0.00,CLR,,0.00,WeatherDisplay:10.37,2013-02-17 02:13:00,
2013-02-16 19:18:00,45.7,4.5,29.81,NNE,22,1.2,1.2,18,0.00,CLR,,0.00,WeatherDisplay:10.37,2013-02-17 02:18:00,
2013-02-16 19:23:00,45.5,6.7,29.80,North,0,1.2,1.2,20,0.00,CLR,,0.00,WeatherDisplay:10.37,2013-02-17 02:23:00,
2013-02-16 19:28:00,45.3,5.4,29.80,NNW,338,2.6,2.6,19,0.00,CLR,,0.00,WeatherDisplay:10.37,2013-02-17 02:28:00,
2013-02-16 19:33:00,45.3,6.5,29.80,NNW,338,1.2,1.2,20,0.00,CLR,,0.00,WeatherDisplay:10.37,2013-02-17 02:33:00,
2013-02-16 19:38:00,45.3,6.5,29.80,NE,45,2.3,2.3,20,0.00,CLR,,0.00,WeatherDisplay:10.37,2013-02-17 02:38:00,
2013-02-16 19:43:00,45.3,6.5,29.80,NNW,338,2.3,2.3,20,0.00,CLR,,0.00,WeatherDisplay:10.37,2013-02-17 02:43:00,
2013-02-16 19:48:00,45.1,6.4,29.80,NE,45,1.2,1.2,20,0.00,CLR,,0.00,WeatherDisplay:10.37,2013-02-17 02:48:00,
2013-02-16 19:53:00,45.0,6.2,29.80,North,0,2.3,2.3,20,0.00,CLR,,0.00,WeatherDisplay:10.37,2013-02-17 02:53:00,
2013-02-16 19:58:00,44.8,6.1,29.80,North,0,1.6,1.6,20,0.00,CLR,,0.00,WeatherDisplay:10.37,2013-02-17 02:58:00,
2013-02-16 20:03:00,44.6,5.9,29.80,North,0,0.0,0.2,20,0.00,CLR,,0.00,WeatherDisplay:10.37,2013-02-17 03:03:00,
2013-02-16 20:08:00,44.2,5.6,29.80,NNW,338,2.3,2.3,20,0.00,CLR,,0.00,WeatherDisplay:10.37,2013-02-17 03:08:00,
2013-02-16 20:13:00,44.1,5.5,29.80,ENE,68,1.2,1.2,20,0.00,CLR,,0.00,WeatherDisplay:10.37,2013-02-17 03:13:00,
2013-02-16 20:18:00,44.1,6.5,29.80,NNE,22,2.4,2.4,21,0.00,CLR,,0.00,WeatherDisplay:10.37,2013-02-17 03:18:00,
2013-02-16 20:23:00,44.1,6.5,29.79,NNE,22,2.4,2.4,21,0.00,CLR,,0.00,WeatherDisplay:10.37,2013-02-17 03:23:00,
2013-02-16 20:28:00,44.1,6.5,29.79,NNE,22,2.3,2.3,21,0.00,CLR,,0.00,WeatherDisplay:10.37,2013-02-17 03:28:00,
2013-02-16 20:33:00,44.1,6.5,29.79,North,0,1.2,1.2,21,0.00,CLR,,0.00,WeatherDisplay:10.37,2013-02-17 03:33:00,
2013-02-16 20:38:00,44.1,6.5,29.79,NNW,338,2.3,2.3,21,0.00,CLR,,0.00,WeatherDisplay:10.37,2013-02-17 03:38:00,
2013-02-16 20:43:00,44.2,6.7,29.79,NNE,22,2.3,2.3,21,0.00,CLR,,0.00,WeatherDisplay:10.37,2013-02-17 03:43:00,
2013-02-16 20:48:00,44.2,6.7,29.79,North,0,2.3,2.3,21,0.00,CLR,,0.00,WeatherDisplay:10.37,2013-02-17 03:48:00,
2013-02-16 20:53:00,44.1,6.5,29.79,NNE,22,2.3,2.3,21,0.00,CLR,,0.00,WeatherDisplay:10.37,2013-02-17 03:53:00,
2013-02-16 20:58:00,43.9,6.4,29.79,NNE,22,1.8,1.8,21,0.00,CLR,,0.00,WeatherDisplay:10.37,2013-02-17 03:58:00,
2013-02-16 21:03:00,43.7,6.2,29.79,NNE,22,1.2,1.2,21,0.00,CLR,,0.00,WeatherDisplay:10.37,2013-02-17 04:03:00,
2013-02-16 21:08:00,43.5,6.1,29.80,NNW,338,1.2,1.2,21,0.00,CLR,,0.00,WeatherDisplay:10.37,2013-02-17 04:08:00,
2013-02-16 21:13:00,43.2,5.8,29.79,North,0,2.3,2.3,21,0.00,CLR,,0.00,WeatherDisplay:10.37,2013-02-17 04:13:00,
2013-02-16 21:18:00,43.2,6.8,29.79,North,0,1.2,1.2,22,0.00,CLR,,0.00,WeatherDisplay:10.37,2013-02-17 04:18:00,
2013-02-16 21:23:00,43.2,6.8,29.79,NW,315,4.6,4.6,22,0.00,CLR,,0.00,WeatherDisplay:10.37,2013-02-17 04:23:00,
2013-02-16 21:28:00,43.3,7.0,29.79,NE,45,2.3,2.3,22,0.00,CLR,,0.00,WeatherDisplay:10.37,2013-02-17 04:28:00,
2013-02-16 21:33:00,43.5,7.1,29.79,NNW,338,2.3,2.3,22,0.00,CLR,,0.00,WeatherDisplay:10.37,2013-02-17 04:33:00,
2013-02-16 21:38:00,43.3,7.0,29.79,NNW,338,2.3,2.3,22,0.00,CLR,,0.00,WeatherDisplay:10.37,2013-02-17 04:38:00,
2013-02-16 21:43:00,43.2,6.8,29.79,North,0,1.2,1.2,22,0.00,CLR,,0.00,WeatherDisplay:10.37,2013-02-17 04:43:00,
2013-02-16 21:48:00,42.8,6.5,29.79,NNE,22,1.2,1.2,22,0.00,CLR,,0.00,WeatherDisplay:10.37,2013-02-17 04:48:00,
2013-02-16 21:53:00,42.4,6.2,29.79,North,0,2.3,2.3,22,0.00,CLR,,0.00,WeatherDisplay:10.37,2013-02-17 04:53:00,
2013-02-16 21:58:00,42.3,6.1,29.79,North,0,1.2,1.2,22,0.00,CLR,,0.00,WeatherDisplay:10.37,2013-02-17 04:58:00,
2013-02-16 22:00:00,42.3,6.1,29.79,North,0,1.2,1.2,22,0.00,CLR,,0.00,WeatherDisplay:10.37,2013-02-17 05:00:00,
2013-02-16 22:05:00,42.1,5.9,29.78,NNE,22,1.2,1.2,22,0.00,CLR,,0.00,WeatherDisplay:10.37,2013-02-17 05:05:00,
2013-02-16 22:10:00,41.9,5.8,29.79,North,0,1.2,1.2,22,0.00,CLR,,0.00,WeatherDisplay:10.37,2013-02-17 05:10:00,
2013-02-16 22:15:00,41.9,5.8,29.79,NW,315,2.0,2.0,22,0.00,CLR,,0.00,WeatherDisplay:10.37,2013-02-17 05:15:00,
2013-02-16 22:20:00,41.7,5.6,29.78,NNE,22,1.2,1.2,22,0.00,CLR,,0.00,WeatherDisplay:10.37,2013-02-17 05:20:00,
2013-02-16 22:25:00,41.7,5.6,29.78,NNW,338,1.2,1.2,22,0.00,CLR,,0.00,WeatherDisplay:10.37,2013-02-17 05:25:00,
2013-02-16 22:30:00,41.5,5.4,29.78,NNE,22,2.3,2.3,22,0.00,CLR,,0.00,WeatherDisplay:10.37,2013-02-17 05:30:00,
2013-02-16 22:35:00,41.4,5.3,29.78,North,0,2.3,2.3,22,0.00,CLR,,0.00,WeatherDisplay:10.37,2013-02-17 05:35:00,
2013-02-16 22:40:00,41.4,5.3,29.78,NNW,338,2.3,2.3,22,0.00,CLR,,0.00,WeatherDisplay:10.37,2013-02-17 05:40:00,
2013-02-16 22:45:00,41.2,5.1,29.77,NE,45,2.3,2.3,22,0.00,CLR,,0.00,WeatherDisplay:10.37,2013-02-17 05:45:00,
2013-02-16 22:50:00,40.8,4.8,29.77,North,0,2.3,2.3,22,0.00,CLR,,0.00,WeatherDisplay:10.37,2013-02-17 05:50:00,
2013-02-16 22:55:00,40.5,4.5,29.77,NNW,338,1.2,1.2,22,0.00,CLR,,0.00,WeatherDisplay:10.37,2013-02-17 05:55:00,
2013-02-16 23:00:00,40.1,5.2,29.77,NNW,338,1.2,0.0,23,0.00,CLR,,0.00,WeatherDisplay:10.37,2013-02-17 06:00:00,
2013-02-16 23:05:00,39.9,5.0,29.77,NW,315,0.2,0.2,23,0.00,CLR,,0.00,WeatherDisplay:10.37,2013-02-17 06:05:00,
2013-02-16 23:10:00,39.6,5.7,29.76,North,0,0.2,0.2,24,0.00,CLR,,0.00,WeatherDisplay:10.37,2013-02-17 06:10:00,
2013-02-16 23:15:00,39.2,5.4,29.76,North,0,0.0,0.0,24,0.00,CLR,,0.00,WeatherDisplay:10.37,2013-02-17 06:15:00,
2013-02-16 23:20:00,38.7,4.9,29.76,NNE,22,0.0,0.0,24,0.00,CLR,,0.00,WeatherDisplay:10.37,2013-02-17 06:20:00,
2013-02-16 23:25:00,38.1,4.4,29.76,NNE,22,0.0,0.0,24,0.00,CLR,,0.00,WeatherDisplay:10.37,2013-02-17 06:25:00,
2013-02-16 23:30:00,37.4,3.8,29.76,SSE,158,1.2,1.2,24,0.00,CLR,,0.00,WeatherDisplay:10.37,2013-02-17 06:30:00,
2013-02-16 23:35:00,36.9,4.3,29.76,SSE,158,0.0,0.0,25,0.00,CLR,,0.00,WeatherDisplay:10.37,2013-02-17 06:35:00,
2013-02-16 23:40:00,36.3,2.9,29.76,NNE,22,0.7,0.7,24,0.00,CLR,,0.00,WeatherDisplay:10.37,2013-02-17 06:40:00,
2013-02-16 23:45:00,35.8,2.4,29.76,NNE,22,0.0,0.0,24,0.00,CLR,,0.00,WeatherDisplay:10.37,2013-02-17 06:45:00,
2013-02-16 23:50:00,35.2,2.9,29.76,SW,225,1.6,1.6,25,0.00,CLR,,0.00,WeatherDisplay:10.37,2013-02-17 06:50:00,
2013-02-16 23:55:00,34.9,3.4,29.76,SSE,158,2.3,2.3,26,0.00,CLR,,0.00,WeatherDisplay:10.37,2013-02-17 06:55:00,